createdAt,value
2023-07-20T00:01:19.217Z,7.25
2023-07-20T00:03:55.829Z,8.50
2023-07-20T00:06:24.983Z,7.53
2023-07-20T00:08:53.156Z,7.20
2023-07-20T00:11:21.284Z,7.30
2023-07-20T00:13:49.675Z,8.30
2023-07-20T00:16:19.339Z,7.90
2023-07-20T00:18:47.634Z,7.60
2023-07-20T00:21:15.854Z,7.85
2023-07-20T00:23:44.049Z,8.45
2023-07-20T00:26:12.176Z,8.30
2023-07-20T00:28:40.369Z,8.90
2023-07-20T00:31:09.541Z,9.43
2023-07-20T00:33:40.231Z,9.10
2023-07-20T00:36:08.786Z,9.13
2023-07-20T00:38:37.012Z,8.98
2023-07-20T00:41:06.341Z,9.30
2023-07-20T00:43:36.275Z,8.73
2023-07-20T00:46:05.040Z,9.02
2023-07-20T00:48:34.199Z,10.00
2023-07-20T00:51:04.670Z,9.80
2023-07-20T00:53:32.996Z,9.98
2023-07-20T00:56:04.512Z,10.43
2023-07-20T00:58:32.767Z,10.90
2023-07-20T01:01:03.472Z,9.93
2023-07-20T01:03:31.752Z,9.38
2023-07-20T01:06:12.050Z,9.73
2023-07-20T01:08:45.374Z,9.45
2023-07-20T01:11:19.471Z,9.55
2023-07-20T01:13:47.964Z,9.65
2023-07-20T01:16:16.039Z,10.43
2023-07-20T01:18:44.247Z,11.05
2023-07-20T01:21:20.477Z,10.70
2023-07-20T01:24:12.553Z,10.00
2023-07-20T01:26:56.637Z,10.35
2023-07-20T01:29:38.778Z,10.70
2023-07-20T01:32:10.841Z,10.68
2023-07-20T01:34:41.564Z,10.27
2023-07-20T01:37:10.627Z,10.35
2023-07-20T01:39:40.316Z,9.65
2023-07-20T01:42:08.737Z,10.65
2023-07-20T01:44:39.470Z,10.10
2023-07-20T01:47:09.178Z,11.00
2023-07-20T01:49:37.668Z,10.63
2023-07-20T01:52:06.567Z,10.52
2023-07-20T01:54:35.067Z,10.20
2023-07-20T01:57:03.872Z,10.45
2023-07-20T01:59:32.012Z,10.68
2023-07-20T02:02:00.117Z,10.50
2023-07-20T02:04:29.701Z,10.48
2023-07-20T02:06:57.860Z,10.80
2023-07-20T02:09:26.003Z,11.32
2023-07-20T02:11:54.127Z,11.93
2023-07-20T02:14:23.506Z,12.15
2023-07-20T02:16:53.514Z,11.80
2023-07-20T02:19:23.016Z,12.05
2023-07-20T02:21:52.475Z,11.98
2023-07-20T02:24:20.782Z,11.98
2023-07-20T02:26:48.944Z,12.15
2023-07-20T02:29:17.046Z,12.40
2023-07-20T02:31:45.221Z,12.70
2023-07-20T02:34:13.435Z,12.10
2023-07-20T02:36:43.599Z,12.15
2023-07-20T02:39:13.257Z,13.70
2023-07-20T02:41:41.645Z,14.65
2023-07-20T02:44:10.078Z,16.20
2023-07-20T02:46:38.933Z,17.15
2023-07-20T02:49:07.367Z,18.42
2023-07-20T02:51:35.389Z,18.17
2023-07-20T02:54:04.373Z,18.95
2023-07-20T02:56:33.858Z,19.65
2023-07-20T02:59:03.062Z,18.30
2023-07-20T03:01:31.325Z,18.38
2023-07-20T03:03:59.604Z,18.67
2023-07-20T03:06:27.824Z,17.88
2023-07-20T03:08:57.649Z,19.90
2023-07-20T03:11:26.052Z,19.08
2023-07-20T03:13:55.595Z,17.55
2023-07-20T03:16:27.499Z,17.63
2023-07-20T03:18:55.846Z,19.33
2023-07-20T03:21:27.646Z,17.63
2023-07-20T03:23:55.864Z,17.95
2023-07-20T03:26:25.407Z,17.48
2023-07-20T03:28:55.081Z,18.35
2023-07-20T03:31:23.911Z,18.63
2023-07-20T03:33:52.265Z,19.60
2023-07-20T03:36:20.955Z,16.80
2023-07-20T03:38:49.285Z,17.23
2023-07-20T03:41:17.418Z,18.20
2023-07-20T03:43:45.590Z,18.60
2023-07-20T03:46:15.189Z,18.85
2023-07-20T03:48:43.417Z,18.58
2023-07-20T03:51:11.709Z,20.95
2023-07-20T03:53:39.989Z,21.58
2023-07-20T03:56:08.188Z,19.30
2023-07-20T03:58:36.772Z,19.80
2023-07-20T04:01:05.195Z,18.27
2023-07-20T04:03:34.894Z,17.65
2023-07-20T04:06:03.225Z,17.85
2023-07-20T04:08:31.636Z,16.52
2023-07-20T04:10:59.823Z,15.63
2023-07-20T04:13:29.025Z,15.18
2023-07-20T04:15:57.360Z,14.02
2023-07-20T04:18:25.508Z,14.07
2023-07-20T04:20:55.436Z,14.88
2023-07-20T04:23:23.705Z,14.88
2023-07-20T04:25:53.394Z,14.88
2023-07-20T04:28:21.895Z,14.30
2023-07-20T04:30:52.475Z,15.18
2023-07-20T04:33:21.280Z,14.75
2023-07-20T04:35:51.889Z,14.18
2023-07-20T04:38:33.202Z,13.95
2023-07-20T04:41:14.127Z,15.73
2023-07-20T04:43:46.104Z,14.60
2023-07-20T04:46:18.785Z,13.80
2023-07-20T04:48:49.038Z,13.48
2023-07-20T04:51:18.993Z,13.90
2023-07-20T04:53:49.039Z,14.85
2023-07-20T04:56:17.637Z,14.38
2023-07-20T04:58:46.462Z,12.82
2023-07-20T05:01:15.240Z,13.32
2023-07-20T05:03:44.082Z,13.25
2023-07-20T05:06:13.513Z,12.45
2023-07-20T05:08:41.715Z,12.52
2023-07-20T05:11:11.356Z,13.23
2023-07-20T05:13:39.565Z,13.20
2023-07-20T05:16:08.515Z,11.75
2023-07-20T05:18:37.020Z,11.55
2023-07-20T05:21:05.779Z,10.25
2023-07-20T05:23:34.221Z,10.02
2023-07-20T05:26:03.656Z,9.10
2023-07-20T05:28:33.171Z,8.25
2023-07-20T05:31:01.640Z,6.88
2023-07-20T05:33:29.853Z,6.53
2023-07-20T05:35:58.025Z,6.57
2023-07-20T05:38:26.379Z,6.45
2023-07-20T05:40:54.540Z,6.00
2023-07-20T05:43:22.722Z,6.70
2023-07-20T05:45:52.347Z,6.78
2023-07-20T05:48:20.658Z,5.82
2023-07-20T05:50:49.160Z,6.20
2023-07-20T05:53:17.288Z,5.30
2023-07-20T05:55:45.488Z,5.45
2023-07-20T05:58:13.674Z,5.38
2023-07-20T06:00:41.850Z,5.35
2023-07-20T06:03:12.466Z,6.32
2023-07-20T06:05:40.736Z,6.22
2023-07-20T06:08:08.913Z,6.85
2023-07-20T06:10:37.107Z,7.28
2023-07-20T06:13:05.669Z,7.50
2023-07-20T06:15:36.273Z,7.40
2023-07-20T06:18:05.086Z,7.72
2023-07-20T06:20:34.788Z,8.77
2023-07-20T06:23:03.376Z,8.32
2023-07-20T06:25:31.675Z,7.78
2023-07-20T06:27:59.917Z,8.05
2023-07-20T06:30:28.159Z,7.10
2023-07-20T06:32:56.367Z,7.05
2023-07-20T06:35:26.503Z,7.50
2023-07-20T06:38:31.861Z,6.30
2023-07-20T06:40:48.575Z,6.72
2023-07-20T06:45:54.470Z,5.43
2023-07-20T06:48:23.377Z,5.13
2023-07-20T06:50:51.646Z,5.10
2023-07-20T06:53:21.203Z,5.20
2023-07-20T06:55:49.764Z,5.18
2023-07-20T06:58:18.932Z,4.85
2023-07-20T07:00:47.100Z,4.60
2023-07-20T07:03:15.657Z,4.35
2023-07-20T07:05:44.038Z,4.07
2023-07-20T07:08:12.385Z,4.00
2023-07-20T07:10:41.946Z,3.95
2023-07-20T07:13:10.279Z,3.22
2023-07-20T07:15:39.252Z,2.75
2023-07-20T07:18:07.863Z,2.17
2023-07-20T07:20:36.223Z,2.30
2023-07-20T07:23:04.426Z,1.60
2023-07-20T07:25:33.353Z,2.10
2023-07-20T07:28:03.001Z,1.80
2023-07-20T07:30:33.097Z,1.65
2023-07-20T07:33:03.001Z,1.40
2023-07-20T07:35:31.239Z,1.75
2023-07-20T07:40:32.609Z,2.08
2023-07-20T07:43:02.321Z,1.77
2023-07-20T07:45:30.697Z,1.23
2023-07-20T07:47:59.218Z,1.60
2023-07-20T07:50:28.359Z,1.27
2023-07-20T07:52:56.728Z,1.50
2023-07-20T07:55:25.107Z,1.27
2023-07-20T07:57:53.283Z,1.70
2023-07-20T08:00:23.329Z,1.67
2023-07-20T08:02:53.495Z,1.60
2023-07-20T08:05:21.817Z,1.83
2023-07-20T08:07:50.059Z,1.60
2023-07-20T08:10:18.373Z,2.05
2023-07-20T08:12:46.725Z,1.67
2023-07-20T08:15:15.916Z,1.00
2023-07-20T08:17:46.011Z,1.20
2023-07-20T08:20:15.527Z,1.33
2023-07-20T08:22:44.584Z,1.00
2023-07-20T08:25:14.085Z,1.02
2023-07-20T08:27:42.333Z,1.25
2023-07-20T08:30:11.851Z,1.20
2023-07-20T08:32:40.770Z,1.27
2023-07-20T08:35:11.392Z,1.38
2023-07-20T08:37:39.704Z,1.40
2023-07-20T08:40:10.895Z,1.00
2023-07-20T08:42:40.924Z,1.63
2023-07-20T08:45:11.399Z,1.48
2023-07-20T08:47:40.398Z,1.40
2023-07-20T08:50:13.029Z,1.30
2023-07-20T08:52:41.497Z,1.00
2023-07-20T08:55:10.668Z,1.65
2023-07-20T08:57:40.237Z,1.52
2023-07-20T09:00:12.308Z,1.60
2023-07-20T09:02:42.451Z,1.70
2023-07-20T09:05:14.362Z,1.48
2023-07-20T09:07:43.163Z,1.27
2023-07-20T09:10:11.802Z,1.25
2023-07-20T09:12:40.935Z,0.73
2023-07-20T09:15:11.621Z,1.38
2023-07-20T09:17:40.547Z,1.17
2023-07-20T09:20:12.192Z,1.00
2023-07-20T09:22:41.812Z,1.42
2023-07-20T09:25:15.233Z,0.80
2023-07-20T09:27:44.952Z,2.30
2023-07-20T09:30:19.376Z,0.98
2023-07-20T09:40:55.382Z,1.92
2023-07-20T09:50:59.134Z,1.45
2023-07-20T09:53:28.466Z,1.27
2023-07-20T09:55:57.192Z,1.23
2023-07-20T09:58:25.518Z,0.95
2023-07-20T10:00:55.329Z,1.40
2023-07-20T10:06:02.328Z,1.00
2023-07-20T10:13:34.670Z,1.42
2023-07-20T10:16:05.561Z,2.05
2023-07-20T10:18:40.844Z,1.83
2023-07-20T10:23:43.653Z,2.80
2023-07-20T10:26:12.659Z,2.10
2023-07-20T10:28:41.330Z,1.90
2023-07-20T10:31:11.190Z,1.92
2023-07-20T10:33:40.468Z,2.42
2023-07-20T10:36:10.253Z,1.90
2023-07-20T10:38:42.761Z,1.95
2023-07-20T10:41:21.471Z,1.58
2023-07-20T10:43:50.474Z,2.05
2023-07-20T10:46:36.639Z,1.70
2023-07-20T10:49:06.293Z,1.58
2023-07-20T10:51:42.885Z,2.58
2023-07-20T10:54:32.025Z,4.10
2023-07-20T10:57:20.956Z,2.20
2023-07-20T10:59:50.117Z,1.50
2023-07-20T11:02:21.006Z,1.60
2023-07-20T11:04:51.094Z,1.90
2023-07-20T11:07:39.514Z,1.60
2023-07-20T11:10:20.137Z,2.38
2023-07-20T11:13:18.965Z,1.98
2023-07-20T11:15:48.772Z,2.45
2023-07-20T11:18:17.349Z,2.20
2023-07-20T11:20:45.646Z,1.98
2023-07-20T11:23:15.319Z,1.52
2023-07-20T11:25:43.658Z,2.10
2023-07-20T11:28:12.362Z,2.00
2023-07-20T11:30:42.011Z,1.45
2023-07-20T11:33:11.065Z,1.80
2023-07-20T11:35:44.861Z,1.40
2023-07-20T11:38:14.776Z,1.40
2023-07-20T11:40:45.919Z,1.70
2023-07-20T11:45:47.460Z,1.45
2023-07-20T11:48:17.455Z,1.15
2023-07-20T11:50:45.969Z,1.00
2023-07-20T11:53:16.430Z,1.27
2023-07-20T11:55:44.944Z,1.80
2023-07-20T11:58:13.144Z,1.90
2023-07-20T12:00:42.078Z,1.23
2023-07-20T12:03:11.245Z,1.10
2023-07-20T12:06:00.145Z,0.90
2023-07-20T12:08:30.530Z,0.70
2023-07-20T12:10:58.749Z,1.30
2023-07-20T12:13:37.375Z,1.30
2023-07-20T12:16:11.874Z,1.40
2023-07-20T12:18:40.395Z,1.98
2023-07-20T12:21:09.843Z,1.30
2023-07-20T12:23:40.324Z,1.50
2023-07-20T12:26:12.486Z,1.05
2023-07-20T12:28:44.499Z,1.17
2023-07-20T12:31:14.353Z,1.37
2023-07-20T12:33:42.907Z,1.05
2023-07-20T12:36:11.705Z,1.08
2023-07-20T12:38:42.786Z,1.00
2023-07-20T12:41:14.852Z,1.17
2023-07-20T12:43:43.389Z,1.10
2023-07-20T12:46:14.292Z,1.25
2023-07-20T12:48:46.536Z,1.25
2023-07-20T12:51:16.688Z,1.83
2023-07-20T12:53:46.769Z,1.65
2023-07-20T12:58:46.382Z,1.00
2023-07-20T13:01:15.119Z,1.10
2023-07-20T13:08:47.255Z,1.38
2023-07-20T13:11:15.498Z,1.23
2023-07-20T13:13:43.697Z,1.10
2023-07-20T13:16:12.222Z,1.45
2023-07-20T13:18:40.540Z,1.50
2023-07-20T13:21:11.745Z,1.00
2023-07-20T13:23:41.280Z,1.33
2023-07-20T13:26:10.953Z,0.75
2023-07-20T13:28:39.302Z,0.80
2023-07-20T13:31:08.406Z,1.20
2023-07-20T13:33:39.746Z,1.48
2023-07-20T13:36:09.091Z,1.10
2023-07-20T13:38:38.335Z,1.40
2023-07-20T13:41:06.707Z,1.20
2023-07-20T13:43:36.262Z,0.90
2023-07-20T13:46:04.578Z,0.75
2023-07-20T13:48:37.605Z,1.10
2023-07-20T13:51:06.783Z,0.90
2023-07-20T13:58:40.851Z,1.10
2023-07-20T14:01:09.308Z,1.30
2023-07-20T14:03:38.868Z,1.92
2023-07-20T14:08:38.452Z,1.58
2023-07-20T14:13:47.200Z,1.50
2023-07-20T14:16:16.490Z,1.27
2023-07-20T14:18:49.753Z,1.70
2023-07-20T14:21:19.057Z,1.02
2023-07-20T14:23:48.575Z,1.50
2023-07-20T14:26:17.062Z,1.20
2023-07-20T14:28:46.775Z,1.08
2023-07-20T14:31:15.188Z,1.20
2023-07-20T14:33:43.515Z,1.70
2023-07-20T14:36:12.117Z,1.20
2023-07-20T14:38:41.655Z,1.70
2023-07-20T14:41:09.966Z,1.30
2023-07-20T14:43:38.324Z,1.27
2023-07-20T14:46:08.124Z,1.40
2023-07-20T14:48:36.786Z,1.52
2023-07-20T14:51:06.146Z,2.17
2023-07-20T14:53:36.419Z,1.83
2023-07-20T14:56:06.136Z,1.83
2023-07-20T14:58:35.560Z,1.85
2023-07-20T15:01:05.175Z,1.50
2023-07-20T15:03:37.919Z,1.48
2023-07-20T15:06:06.447Z,1.13
2023-07-20T15:08:34.898Z,1.25
2023-07-20T15:11:03.284Z,1.30
2023-07-20T15:13:31.723Z,1.13
2023-07-20T15:16:00.078Z,1.40
2023-07-20T15:18:45.298Z,1.20
2023-07-20T15:21:17.152Z,1.20
2023-07-20T15:23:45.916Z,1.38
2023-07-20T15:26:15.362Z,2.30
2023-07-20T15:28:43.624Z,1.90
2023-07-20T15:31:12.338Z,1.00
2023-07-20T15:33:40.884Z,1.50
2023-07-20T15:36:09.339Z,1.10
2023-07-20T15:38:40.067Z,1.00
2023-07-20T15:41:11.699Z,1.63
2023-07-20T15:43:39.957Z,1.52
2023-07-20T15:46:49.166Z,1.65
2023-07-20T15:49:18.530Z,2.15
2023-07-20T15:51:47.771Z,2.80
2023-07-20T15:54:17.715Z,1.67
2023-07-20T15:56:46.558Z,1.27
2023-07-20T15:59:16.914Z,1.45
2023-07-20T16:01:46.568Z,1.70
2023-07-20T16:04:16.768Z,1.50
2023-07-20T16:06:45.279Z,3.40
2023-07-20T16:09:14.193Z,2.58
2023-07-20T16:11:46.034Z,3.17
2023-07-20T16:14:14.375Z,1.73
2023-07-20T16:16:42.807Z,2.58
2023-07-20T16:19:11.267Z,2.15
2023-07-20T16:21:39.434Z,1.63
2023-07-20T16:24:08.574Z,1.90
2023-07-20T16:26:37.004Z,1.70
2023-07-20T16:34:06.621Z,4.90
2023-07-20T16:44:12.735Z,5.30
2023-07-20T16:49:13.778Z,1.90
2023-07-20T16:51:42.205Z,2.20
2023-07-20T16:54:10.724Z,1.83
2023-07-20T16:56:39.067Z,1.83
2023-07-20T16:59:07.326Z,2.33
2023-07-20T17:01:37.194Z,2.15
2023-07-20T17:04:05.475Z,1.90
2023-07-20T17:06:33.686Z,2.08
2023-07-20T17:09:02.262Z,1.40
2023-07-20T17:11:30.545Z,1.70
2023-07-20T17:13:58.771Z,1.45
2023-07-20T17:16:27.193Z,1.20
2023-07-20T17:18:57.270Z,1.52
2023-07-20T17:21:25.975Z,1.45
2023-07-20T17:28:58.749Z,1.85
2023-07-20T17:31:29.849Z,1.95
2023-07-20T17:34:00.779Z,1.70
2023-07-20T17:39:01.332Z,1.70
2023-07-20T17:41:29.898Z,1.48
2023-07-20T17:43:59.242Z,1.95
2023-07-20T17:49:03.454Z,1.33
2023-07-20T17:54:00.581Z,1.25
2023-07-20T17:56:29.069Z,2.10
2023-07-20T17:58:57.591Z,1.60
2023-07-20T18:01:26.493Z,1.40
2023-07-20T18:03:55.332Z,1.50
2023-07-20T18:06:25.370Z,1.65
2023-07-20T18:08:54.002Z,1.40
2023-07-20T18:11:23.398Z,1.58
2023-07-20T18:13:54.170Z,1.38
2023-07-20T18:16:23.533Z,1.77
2023-07-20T18:18:52.181Z,1.98
2023-07-20T18:21:20.913Z,1.50
2023-07-20T18:23:52.460Z,2.50
2023-07-20T18:26:21.653Z,1.50
2023-07-20T18:28:50.291Z,2.58
2023-07-20T18:31:19.330Z,1.73
2023-07-20T18:33:47.875Z,2.47
2023-07-20T18:36:16.476Z,2.30
2023-07-20T18:38:44.985Z,2.00
2023-07-20T18:41:15.100Z,2.22
2023-07-20T18:43:43.639Z,5.15
2023-07-20T18:46:13.477Z,3.33
2023-07-20T18:48:43.496Z,2.40
2023-07-20T18:51:12.024Z,1.70
2023-07-20T18:53:40.584Z,1.83
2023-07-20T18:56:09.171Z,1.55
2023-07-20T18:58:39.322Z,1.90
2023-07-20T19:01:08.034Z,2.00
2023-07-20T19:03:36.678Z,2.40
2023-07-20T19:06:06.119Z,2.88
2023-07-20T19:08:34.938Z,2.53
2023-07-20T19:13:36.444Z,2.78
2023-07-20T19:16:08.529Z,2.35
2023-07-20T19:18:39.043Z,2.65
2023-07-20T19:21:08.090Z,1.80
2023-07-20T19:23:37.074Z,2.33
2023-07-20T19:26:08.957Z,3.10
2023-07-20T19:28:38.233Z,1.83
2023-07-20T19:31:09.710Z,1.83
2023-07-20T19:33:38.822Z,2.50
2023-07-20T19:36:07.514Z,1.60
2023-07-20T19:38:36.035Z,2.10
2023-07-20T19:41:06.527Z,2.47
2023-07-20T19:43:35.215Z,2.63
2023-07-20T19:46:03.944Z,2.30
2023-07-20T19:48:34.059Z,4.57
2023-07-20T19:51:02.769Z,2.30
2023-07-20T19:53:31.675Z,2.35
2023-07-20T19:56:01.567Z,3.28
2023-07-20T19:58:30.125Z,2.83
2023-07-20T20:06:03.016Z,1.75
2023-07-20T20:08:33.136Z,2.35
2023-07-20T20:13:33.478Z,1.25
2023-07-20T20:16:02.145Z,1.50
2023-07-20T20:18:30.703Z,1.92
2023-07-20T20:20:59.848Z,1.90
2023-07-20T20:23:29.710Z,2.10
2023-07-20T20:25:58.185Z,1.67
2023-07-20T20:28:26.641Z,2.10
2023-07-20T20:30:57.360Z,2.47
2023-07-20T20:33:26.465Z,1.88
2023-07-20T20:35:56.950Z,2.38
2023-07-20T20:38:25.799Z,2.28
2023-07-20T20:40:58.054Z,2.72
2023-07-20T20:43:31.303Z,2.42
2023-07-20T20:46:04.211Z,3.20
2023-07-20T20:48:34.047Z,2.30
2023-07-20T20:51:02.519Z,3.00
2023-07-20T20:53:32.483Z,2.97
2023-07-20T20:56:02.419Z,2.88
2023-07-20T20:58:30.979Z,2.50
2023-07-20T21:01:01.894Z,2.40
2023-07-20T21:03:31.308Z,2.28
2023-07-20T21:06:00.259Z,3.17
2023-07-20T21:08:28.913Z,3.08
2023-07-20T21:11:00.036Z,2.38
2023-07-20T21:13:30.328Z,2.67
2023-07-20T21:15:58.957Z,2.97
2023-07-20T21:18:27.622Z,2.40
2023-07-20T21:20:56.180Z,2.67
2023-07-20T21:23:25.773Z,2.78
2023-07-20T21:25:54.614Z,2.13
2023-07-20T21:28:23.262Z,2.05
2023-07-20T21:31:05.014Z,2.17
2023-07-20T21:33:33.695Z,2.33
2023-07-20T21:36:02.743Z,2.88
2023-07-20T21:38:33.895Z,2.83
2023-07-20T21:41:02.552Z,2.70
2023-07-20T21:43:31.100Z,2.67
2023-07-20T21:45:59.800Z,2.30
2023-07-20T21:48:29.743Z,2.92
2023-07-20T21:50:58.261Z,2.50
2023-07-20T21:53:26.854Z,3.50
2023-07-20T21:55:55.520Z,3.65
2023-07-20T21:58:24.085Z,2.80
2023-07-20T22:00:54.504Z,2.70
2023-07-20T22:03:23.352Z,2.38
2023-07-20T22:05:57.300Z,2.20
2023-07-20T22:08:26.897Z,2.85
2023-07-20T22:10:58.884Z,2.83
2023-07-20T22:13:27.615Z,3.55
2023-07-20T22:15:57.798Z,4.75
2023-07-20T22:18:36.106Z,3.28
2023-07-20T22:21:07.338Z,2.72
2023-07-20T22:23:37.222Z,2.53
2023-07-20T22:26:06.126Z,2.38
2023-07-20T22:28:34.593Z,3.25
2023-07-20T22:31:03.218Z,3.08
2023-07-20T22:33:31.833Z,2.70
2023-07-20T22:36:00.365Z,2.28
2023-07-20T22:38:30.207Z,2.63
2023-07-20T22:40:58.926Z,3.20
2023-07-20T22:43:29.283Z,2.95
2023-07-20T22:45:58.045Z,2.40
2023-07-20T22:48:28.978Z,3.15
2023-07-20T22:51:00.037Z,3.45
2023-07-20T22:53:31.098Z,3.63
2023-07-20T22:56:00.004Z,3.00
2023-07-20T22:58:28.568Z,3.40
2023-07-20T23:00:57.307Z,2.90
2023-07-20T23:03:25.955Z,3.40
2023-07-20T23:05:54.639Z,2.83
2023-07-20T23:08:23.316Z,2.75
2023-07-20T23:10:53.695Z,3.05
2023-07-20T23:13:23.883Z,2.58
2023-07-20T23:15:52.443Z,2.83
2023-07-20T23:18:20.951Z,2.72
2023-07-20T23:20:49.875Z,2.53
2023-07-20T23:23:18.491Z,2.53
2023-07-20T23:25:47.003Z,3.30
2023-07-20T23:28:16.881Z,2.60
2023-07-20T23:30:49.899Z,2.42
2023-07-20T23:33:21.935Z,2.95
2023-07-20T23:35:52.564Z,3.05
2023-07-20T23:38:21.268Z,3.00
2023-07-20T23:40:49.783Z,3.05
2023-07-20T23:43:19.761Z,4.38
2023-07-20T23:45:48.392Z,3.97
2023-07-20T23:48:16.888Z,4.07
2023-07-20T23:50:45.375Z,3.40
2023-07-20T23:53:14.095Z,4.25
2023-07-20T23:55:42.731Z,3.42
2023-07-20T23:58:11.538Z,3.85
